Create Custom Reports and Graphics: Custom Report

Bell Hill-West

Current Conditions

9/6/26 1:45 AM (-07:00)
Updated Every 15 Minutes
Temp 46.2 °F   1.7
RH 90 %   4
Dew Pt 43.6 °F   2.9
Wet Bulb 45.3 °F   2.4
Wind Dir S | 189 °
Wind Spd 2.9 mph   2.1
Wind Gust 3.8 mph   1.0
Solar Rad 0 W/m2   0
BatVolt 12.8 V   0.0

Today & Yesterday

Bell Hill-West

9/6/26 1:45 AM (-07:00)
Updated Every 15 Minutes
Daily Max Temp 47.9 °F   1.6
Time of Max Temp 0109
Daily Min Temp 46.0 °F   1.1
Time of Min Temp 0141
Daily Max Wind 4.1 mph   0.3
Time of Max Wind 0121
Max Wind Dir SSW | 192 °
Daily Rain 0.00 In
Daily ETo 0.000 in   0.000
Yest MaxT 78.4 °F
Yest MinT 41.9 °F
Yest MaxGst 17.5 mph
Yest Precip 0.00 In
Yest ETo 0.17 In

Last 48 Hours

Bell Hill-West

Hourly Data | America/Los_Angeles
as of 9/6/26 1:52 AM PDT
Date & Time Temp (°F) RH (%) Dew Pt (°F) Wet Bulb (°F) Wind Dir (°) Wind Spd (mph) Wind Gust (mph) Wind Gst Dir (°) Solar Rad (W/m2) Latest Rain (In) Daily Rain (In) Daily Min Temp (°F) Daily Max Temp (°F) Daily ETo (in)
9/6/26 - 0100 47.9 86 44.1 46.4 SSW | 202 1.6 3.8 SSW | 192 0 0.00 0.00 41.9 78.4 0.170
9/6/26 - 0000 49.7 83 44.7 47.6 SSW | 208 1.4 4.1 SW | 226 0 0.00 0.00 41.9 78.4 0.170
9/5/26 - 2300 52.5 77 45.5 49.4 SSW | 192 1.7 3.8 SSW | 195 0 0.00 0.00 41.9 78.4 0.170
9/5/26 - 2200 57.4 66 46.1 51.7 SSW | 198 0.8 4.1 WSW | 238 0 0.00 0.00 41.9 78.4 0.170
9/5/26 - 2100 61.9 57 46.7 53.8 SW | 235 2.5 8.8 SSW | 196 0 0.00 0.00 41.9 78.4 0.170
9/5/26 - 2000 65.9 55 49.4 56.6 WSW | 255 3.8 9.5 WSW | 253 13 0.00 0.00 41.9 78.4 0.170
9/5/26 - 1900 71.5 47 50.1 58.7 SW | 223 6.7 13.5 SSW | 212 158 0.00 0.00 41.9 78.4 0.169
9/5/26 - 1800 74.3 44 50.7 59.7 SSW | 198 8.7 14.8 SSW | 206 343 0.00 0.00 41.9 78.4 0.163
9/5/26 - 1700 76.8 37 48.6 59.2 SSW | 209 7.7 17.5 S | 176 532 0.00 0.00 41.9 78.4 0.151
9/5/26 - 1600 77.2 34 46.6 58.3 SW | 216 6.8 14.8 SSW | 198 681 0.00 0.00 41.9 78.4 0.134
9/5/26 - 1500 76.8 35 47.1 58.4 SSW | 213 6.8 14.5 S | 189 791 0.00 0.00 41.9 78.2 0.113
9/5/26 - 1400 74.8 41 49.8 59.4 WNW | 297 3.7 11.1 SW | 228 746 0.00 0.00 41.9 76.8 0.090
9/5/26 - 1300 73.3 44 50.1 59.2 WSW | 240 3.5 8.8 S | 172 721 0.00 0.00 41.9 74.6 0.069
9/5/26 - 1200 69.9 51 51.2 58.8 NE | 40 4.8 11.5 NNE | 27 746 0.00 0.00 41.9 72.8 0.049
9/5/26 - 1100 66.5 63 53.7 59.4 N | 7 3.0 8.4 NNE | 14 637 0.00 0.00 41.9 69.0 0.030
9/5/26 - 1000 60.7 77 53.4 57.3 NNE | 19 2.0 6.4 NNE | 20 476 0.00 0.00 41.9 64.1 0.015
9/5/26 - 0900 55.4 85 50.9 53.7 NNE | 16 0.2 3.1 NNE | 32 294 0.00 0.00 41.9 59.0 0.005
9/5/26 - 0800 45.2 100 45.2 45.7 SSW | 201 1.7 3.4 S | 191 101 0.00 0.00 41.9 50.8 0.000
9/5/26 - 0700 42.4 100 42.4 42.8 SSW | 193 2.5 4.1 S | 176 3 0.00 0.00 41.9 49.6 0.000
9/5/26 - 0600 43.0 100 43.0 43.4 S | 190 1.3 3.4 SSW | 199 1 0.00 0.00 42.4 49.6 0.000
9/5/26 - 0500 43.8 100 43.8 44.2 SSW | 197 1.7 3.8 S | 171 1 0.00 0.00 42.7 49.6 0.000
9/5/26 - 0400 44.8 100 44.8 45.3 SSW | 192 2.7 3.8 S | 188 0 0.00 0.00 44.5 49.6 0.000
9/5/26 - 0300 46.1 98 45.6 46.4 S | 189 2.4 3.4 SSW | 195 0 0.00 0.00 45.3 49.6 0.000
9/5/26 - 0200 48.0 95 46.7 47.9 S | 189 1.3 3.8 SW | 214 0 0.00 0.00 46.5 49.6 0.000
9/5/26 - 0100 47.6 96 46.5 47.6 SSW | 192 2.2 4.4 ESE | 103 0 0.00 0.00 41.1 74.6 0.157
9/5/26 - 0000 49.3 91 46.9 48.6 SSW | 208 0.9 3.1 SW | 222 0 0.00 0.00 41.1 74.6 0.157
9/4/26 - 2300 53.0 86 49.1 51.6 SSW | 205 0.1 3.1 WSW | 258 0 0.00 0.00 41.1 74.6 0.157
9/4/26 - 2200 56.2 82 50.9 54.1 SW | 224 0.6 4.4 SSW | 193 0 0.00 0.00 41.1 74.6 0.157
9/4/26 - 2100 60.5 74 52.1 56.5 SSW | 202 1.0 6.1 SW | 226 0 0.00 0.00 41.1 74.6 0.157
9/4/26 - 2000 64.2 65 52.2 57.8 WSW | 251 3.8 9.1 W | 266 15 0.00 0.00 41.1 74.6 0.157
9/4/26 - 1900 70.2 50 50.6 58.6 WSW | 256 5.8 12.1 SW | 234 161 0.00 0.00 41.1 74.6 0.157
9/4/26 - 1800 73.7 37 45.6 56.9 WSW | 245 4.0 9.8 WSW | 257 353 0.00 0.00 41.1 74.6 0.152
9/4/26 - 1700 73.7 35 44.6 56.4 W | 265 3.6 9.5 WSW | 246 536 0.00 0.00 41.1 74.5 0.142
9/4/26 - 1600 72.9 35 43.7 55.8 SW | 218 4.4 9.8 S | 169 688 0.00 0.00 41.1 74.3 0.127
9/4/26 - 1500 72.3 34 42.7 55.2 WSW | 241 5.7 15.8 S | 185 791 0.00 0.00 41.1 73.7 0.108
9/4/26 - 1400 70.3 41 45.7 56.0 SW | 219 5.9 12.8 WSW | 244 851 0.00 0.00 41.1 71.7 0.086
9/4/26 - 1300 66.9 53 49.4 56.9 NW | 304 4.1 10.1 NNE | 32 587 0.00 0.00 41.1 69.0 0.064
9/4/26 - 1200 65.0 55 48.4 55.8 NNE | 25 4.5 11.8 NE | 54 793 0.00 0.00 41.1 67.8 0.048
9/4/26 - 1100 61.2 71 51.6 56.4 NNE | 22 3.3 10.5 NE | 50 658 0.00 0.00 41.1 63.3 0.029
9/4/26 - 1000 57.9 81 52.0 55.5 NE | 38 1.4 5.4 NNE | 25 482 0.00 0.00 41.1 59.6 0.015
9/4/26 - 0900 52.3 97 51.3 52.7 S | 189 0.6 3.1 S | 182 312 0.00 0.00 41.1 56.0 0.005
9/4/26 - 0800 43.2 100 43.2 43.6 SSW | 195 1.1 3.1 S | 184 105 0.00 0.00 41.1 48.8 0.000
9/4/26 - 0700 42.0 100 42.0 42.3 SSW | 197 1.9 3.1 SSW | 195 3 0.00 0.00 41.1 48.8 0.000
9/4/26 - 0600 43.7 100 43.7 44.1 S | 190 2.1 4.1 S | 186 0 0.00 0.00 42.7 48.8 0.000
9/4/26 - 0500 43.2 100 43.3 43.6 SSW | 206 1.4 3.4 WSW | 240 0 0.00 0.00 42.7 48.8 0.000
9/4/26 - 0400 45.0 100 45.0 45.5 SSW | 198 1.7 3.1 SW | 216 0 0.00 0.00 43.7 48.8 0.000
9/4/26 - 0300 46.5 100 46.5 47.1 SSW | 196 1.9 4.1 S | 184 0 0.00 0.00 45.8 48.8 0.000
9/4/26 - 0200 48.0 100 48.0 48.7 SSW | 198 2.1 4.4 S | 190 0 0.00 0.00 47.1 48.8 0.000
9/4/26 - 0100 49.9 100 49.9 50.8 S | 190 1.7 3.8 S | 176 0 0.00 0.01 48.8 69.8 0.074
Max 77.2 100 53.7 59.7 - 8.7 17.5 - 851 0.00 0.01 48.8 78.4 0.170
Avg 58.3 73 47.4 52.3 - 3.0 7.2 - 257 0.00 - - - -
Min 42.0 34 42.0 42.3 - 0.1 3.1 - 0 0.00 0.00 41.1 48.8 0.000
Total - - - - - - - - - 0.00 - - - -

Last 30 Days

Bell Hill-West

Daily Data | America/Los_Angeles
as of 9/6/26 1:52 AM PDT
Date Daily Max Temp (°F) Time of Max Temp Daily Min Temp (°F) Time of Min Temp Daily Rain (In) Month Precip (In) Season Precip (In) Wind Spd (mph) Daily Max Wind (mph) Time of Max Wind Max Wind Dir (°) Daily ETo (in) 7 Day ETo (in) Daily Solar Rad (Cal/cm2) Dew Pt (°F) Daily Max RH (%) Daily Min RH (%) Hrs 70-85F (hrs) Hrs > 95F (hrs) Powdery Mildew Stress (pts) GDDs (DL) GDDs (Mx/Mn) Seas GDDs (DL) Seas GDDs (Smpl) Hrs <= 32F (hrs) Hrs <= 28F (hrs) Chilling <=45F (hrs) Chill Hrs 32-45F (hrs) Utah Chilling (Units) Degree Hrs (hrs) Max 1 Min Rain (In) Max 1 Min Rain Time Max 15 Min Rain (In) Max 15 Min Precip Time Max 60 Min Rain (In) Max 60 Min Rain Time MinBV Day (V)
9/5/26 78.4 1510 41.9 0619 0.00 0.04 0.04 3.3 17.5 1642 S | 176 0.170 1.03 537 47.5 100 31 7.31 0.00 20 11.0 10.1 2,644 2,535 0.0 0.0 4.4 4.4 2.0 77.0 - - - - - - 12.6
9/4/26 74.6 1701 41.1 0658 0.00 0.04 0.04 2.7 15.8 1420 S | 185 0.157 1.06 545 47.3 100 32 5.34 0.00 0 9.2 7.8 2,633 2,525 0.0 0.0 4.2 4.2 2.0 45.0 - - - - - - 12.6
9/3/26 69.8 1343 48.8 0101 0.01 0.04 0.04 4.0 16.2 1412 SSW | 193 0.074 1.07 228 56.0 100 56 0.00 0.00 0 10.1 9.3 2,624 2,517 0.0 0.0 0.0 0.0 1.5 8.6 0.01 1858 0.01 1912 0.01 1957 12.6
9/2/26 72.2 1601 54.3 0647 0.03 0.03 0.03 3.4 16.2 1416 S | 185 0.121 1.23 401 53.8 100 48 1.38 0.00 0 11.0 13.2 2,614 2,508 0.0 0.0 0.0 0.0 0.0 26.1 0.01 0756 0.01 0810 0.02 0635 12.6
9/1/26 71.3 1454 48.0 0307 0.00 0.00 0.00 3.5 18.5 1505 SW | 234 0.103 1.33 300 51.7 99 45 0.24 0.00 10 9.7 9.6 2,603 2,495 0.0 0.0 0.0 0.0 0.0 16.6 - - - - - - 12.6
8/31/26 82.4 1300 47.8 0647 0.00 0.00 0.00 4.5 18.8 1434 S | 171 0.196 1.45 570 51.0 92 34 9.54 0.00 20 14.8 15.1 2,593 2,485 0.0 0.0 0.0 0.0 0.0 127.6 - - - - - - 12.6
8/30/26 89.3 1633 47.2 0628 0.00 0.00 0.00 3.4 14.8 1754 S | 181 0.205 1.49 574 49.3 92 22 3.09 0.00 0 18.0 18.2 2,579 2,470 0.0 0.0 0.0 0.0 0.0 195.9 - - - - - - 12.6
8/29/26 86.4 1445 43.5 0629 0.00 0.00 0.00 3.5 17.2 1636 WSW | 247 0.208 1.50 590 45.1 79 21 4.16 0.00 10 15.7 15.0 2,561 2,452 0.0 0.0 2.1 2.1 0.5 157.5 - - - - - - 12.6
8/28/26 85.6 1508 49.1 0101 0.00 0.00 0.00 3.5 14.8 1505 WSW | 254 0.166 1.51 392 41.6 69 11 10.99 0.00 20 18.2 17.4 2,545 2,437 0.0 0.0 0.0 0.0 1.0 161.0 - - - - - - 12.7
8/27/26 95.3 1610 53.8 0653 0.00 0.00 0.00 3.3 16.8 1623 WSW | 257 0.227 1.56 582 50.4 87 16 3.63 0.10 0 24.0 24.6 2,527 2,419 0.0 0.0 0.0 0.0 -16.0 277.4 - - - - - - 12.6
8/26/26 94.3 1529 45.9 0636 0.00 0.00 0.00 3.3 17.5 1837 WSW | 238 0.224 1.56 606 46.3 84 13 3.16 0.00 0 20.6 20.1 2,503 2,395 0.0 0.0 0.0 0.0 0.0 239.3 - - - - - - 12.6
8/25/26 92.1 1436 50.8 0550 0.00 0.00 0.00 3.7 13.5 1810 S | 175 0.227 1.57 590 47.4 81 15 3.62 0.00 0 20.9 21.4 2,482 2,375 0.0 0.0 0.0 0.0 0.0 237.8 - - - - - - 12.6
8/24/26 93.3 1337 51.3 0618 0.00 0.00 0.00 4.0 16.2 1547 SSW | 201 0.231 1.57 590 49.4 82 14 3.18 0.00 0 21.6 22.3 2,461 2,353 0.0 0.0 0.0 0.0 0.0 244.8 - - - - - - 12.6
8/23/26 95.0 1605 49.7 0618 0.00 0.00 0.00 3.2 13.8 1550 SSW | 212 0.216 1.56 582 50.1 90 21 2.95 0.01 0 22.1 22.4 2,440 2,331 0.0 0.0 0.0 0.0 -16.0 261.9 - - - - - - 12.7
8/22/26 91.1 1423 48.5 0642 0.00 0.00 0.00 3.5 15.5 1519 WSW | 237 0.223 1.56 595 47.4 84 18 2.71 0.00 0 19.4 19.8 2,417 2,309 0.0 0.0 0.0 0.0 0.0 216.5 - - - - - - 12.7
8/21/26 90.4 1342 54.2 0101 0.00 0.00 0.00 3.7 17.5 1528 SSW | 207 0.215 1.54 537 49.2 79 18 3.82 0.00 0 22.9 22.3 2,398 2,289 0.0 0.0 0.0 0.0 0.0 233.5 - - - - - - 12.7
8/20/26 95.1 1347 54.0 0636 0.00 0.00 0.00 3.8 15.5 1723 S | 173 0.223 1.52 541 50.5 82 14 3.09 0.02 10 24.1 24.6 2,375 2,267 0.0 0.0 0.0 0.0 -16.5 273.3 - - - - - - 12.6
8/19/26 96.6 1411 56.8 0639 0.00 0.00 0.00 4.0 15.5 1547 S | 186 0.238 1.50 585 55.4 84 25 2.71 1.69 20 26.4 26.7 2,351 2,242 0.0 0.0 0.0 0.0 -17.0 307.7 - - - - - - 12.7
8/18/26 95.7 1419 55.8 0610 0.00 0.00 0.00 3.2 15.8 1739 SSW | 209 0.226 1.49 580 52.3 78 20 2.59 0.48 30 24.9 25.7 2,325 2,215 0.0 0.0 0.0 0.0 -16.5 286.6 - - - - - - 12.7
8/17/26 91.4 1507 59.0 0446 0.00 0.00 0.00 3.2 15.8 1332 SSW | 204 0.216 1.50 550 51.8 80 21 3.46 0.00 40 24.0 25.2 2,300 2,190 0.0 0.0 0.0 0.0 -16.5 249.1 - - - - - - 12.6
8/16/26 89.3 1514 50.2 0633 0.00 0.00 0.00 3.6 14.5 1650 S | 186 0.218 1.53 591 53.8 100 26 3.57 0.00 50 20.6 19.8 2,276 2,164 0.0 0.0 0.0 0.0 -16.0 221.9 - - - - - - 12.6
8/15/26 83.6 1358 49.8 0623 0.00 0.00 0.00 3.5 14.2 1917 WSW | 238 0.198 1.58 580 55.6 100 33 11.23 0.00 60 17.3 16.7 2,255 2,145 0.0 0.0 0.0 0.0 0.0 161.1 - - - - - - 12.7
8/14/26 80.4 1457 51.6 0631 0.00 0.00 0.00 3.8 15.5 1638 SW | 234 0.197 1.65 607 56.5 100 47 9.68 0.00 40 16.0 16.0 2,238 2,128 0.0 0.0 0.0 0.0 0.0 121.0 - - - - - - 12.7
8/13/26 81.3 1541 53.0 0620 0.00 0.00 0.00 4.2 18.2 1440 W | 262 0.202 1.69 599 56.9 96 46 10.38 0.00 20 17.6 17.1 2,222 2,112 0.0 0.0 0.0 0.0 0.0 133.5 - - - - - - 12.6
8/12/26 90.8 1508 54.0 0632 0.00 0.00 0.00 3.9 17.8 1517 SW | 222 0.229 1.74 604 56.4 91 29 4.15 0.00 0 23.1 22.4 2,204 2,095 0.0 0.0 0.0 0.0 -16.5 249.2 - - - - - - 12.5
8/11/26 93.6 1359 55.4 0551 0.00 0.00 0.00 3.7 17.8 1500 S | 184 0.237 1.78 616 56.7 90 28 3.12 0.00 0 24.6 24.5 2,181 2,072 0.0 0.0 0.0 0.0 -16.5 274.3 - - - - - - 12.6
8/10/26 98.6 1313 54.8 0623 0.00 0.00 0.00 4.2 19.8 1329 SW | 216 0.250 1.81 602 53.4 76 23 2.76 2.34 0 26.7 26.7 2,157 2,048 0.0 0.0 0.0 0.0 -17.0 326.6 - - - - - - 12.6
8/9/26 103.1 1448 56.0 0616 0.00 0.00 0.00 3.7 15.5 1612 W | 259 0.264 1.82 641 48.4 68 14 2.19 6.33 0 29.4 29.6 2,130 2,021 0.0 0.0 0.0 0.0 -17.0 376.2 - - - - - - 12.6
8/8/26 104.5 1455 58.9 0615 0.00 0.00 0.00 3.5 15.8 1630 WSW | 243 0.267 1.81 631 47.0 60 11 2.11 7.28 0 31.8 31.7 2,100 1,992 0.0 0.0 0.0 0.0 -18.0 421.5 - - - - - - 12.6
8/7/26 101.8 1639 56.6 0640 0.00 0.00 0.00 3.1 14.8 1418 SSW | 200 0.239 1.81 593 52.2 84 13 2.90 6.14 0 29.5 29.2 2,069 1,960 0.0 0.0 0.0 0.0 -17.5 380.8 - - - - - - 12.6
Max 104.5 - 59.0 - 0.03 0.04 0.04 4.5 19.8 - - 0.267 1.82 641 56.9 100 56 11.23 7.28 - 31.8 31.7 - - 0.0 0.0 4.4 4.4 2.0 421.5 0.01 - 0.01 - 0.02 - 12.7
Avg - - - - - - - 3.6 - - - - - - 51.0 - - 4.30 0.81 - 20.2 20.2 - - 0.0 0.0 0.4 0.4 -7.0 - - - - - - - -
Min 69.8 - 41.1 - 0.00 0.00 0.00 2.7 13.5 - - 0.074 1.03 228 41.6 60 11 0.00 0.00 - 9.2 7.8 - - 0.0 0.0 0.0 0.0 -18.0 8.6 0.01 - 0.01 - 0.01 - 12.5
Total - - - - - - - - - - - - - - - - - 129.07 24.39 - 605.3 604.6 - - 0.0 0.0 10.6 10.6 -210.0 - - - - - - - -

Bell Hill-West Climate Summary

Current Yeaer

Current Year | Showing 1/1/26 - 9/5/26
as of 9/6/26 1:52 AM PDT
Temperature (°F) Max Wind Gust (mph) Precip (in) Days
Month Days Avg High Avg Low Max Min Avg Max Total Daily Min Temp < 28 Daily Min Temp < 32 Daily Max Temp > 90 Daily Max Temp > 100 Daily Rain > 0.01 Daily Rain > 0.1
Jan 2026 31 60.8 33.1 74.6 23.8 11.4 35.6 3.93 7 19 0 0 6 5
Feb 2026 28 60.6 36.7 73 23.7 13.8 23.2 3.47 2 10 0 0 10 8
Mar 2026 31 76.3 38.4 92 30.1 13.8 23.2 0.02 0 2 1 0 1 0
Apr 2026 30 67.4 39.2 81.7 31.7 15.3 28.2 2.78 0 2 0 0 7 5
May 2026 31 78 45.7 89.3 36.9 16.9 33.3 0.59 0 0 0 0 3 3
Jun 2026 30 88 50.9 100.4 39.2 17.3 27.9 0 0 0 12 1 0 0
Jul 2026 31 92.6 52.9 100.1 47.6 17.5 31.6 0 0 0 25 1 0 0
Aug 2026 31 93.6 53 104.5 43.5 16.4 19.8 0 0 0 23 5 0 0
Sep 2026 5 73.3 46.8 78.4 41.1 16.8 18.5 0.04 0 0 0 0 1 0
Total 248 - - - - - - 10.83 9 33 61 7 28 21
Average 27.6 77.3 43.9 77.3 43.9 15.3 - 1.2 1 3.7 6.8 0.8 3.1 2.3
Maximum 31 93.6 53 104.5 - - 35.6 3.93 7 19 25 5 10 8
Minimum 5 60.6 33.1 - 23.7 - - 0 0 0 0 0 0 0

Bell Hill-West Climate Summary

Last Year

Last Year | Showing 1/1/25 - 12/31/25
as of 9/6/26 1:52 AM PDT
Temperature (°F) Max Wind Gust (mph) Precip (in) Days
Month Days Avg High Avg Low Max Min Avg Max Total Daily Min Temp < 28 Daily Min Temp < 32 Daily Max Temp > 90 Daily Max Temp > 100 Daily Rain > 0.01 Daily Rain > 0.1
Jan 2025 31 60.7 29.7 69.3 22.5 10.3 19.2 0.8 16 22 0 0 3 2
Feb 2025 28 58.3 33.8 80 23.6 14.5 34.6 8.7 5 14 0 0 11 8
Mar 2025 31 58.9 36 82.1 29 18.5 43.3 4.21 0 10 0 0 11 7
Apr 2025 30 70.4 40.1 83.3 31.2 15.3 22.9 0.65 0 2 0 0 4 2
May 2025 31 78.9 44.1 98.2 36.9 16.7 23.2 0.1 0 0 2 0 1 0
Jun 2025 30 86.9 50.5 94.5 40.5 16.6 20.5 0 0 0 9 0 0 0
Jul 2025 31 89.5 53.9 99.1 45.3 16.7 20.5 0 0 0 15 0 0 0
Aug 2025 31 92.4 53.4 100.2 43.5 17 20.9 0 0 0 21 1 0 0
Sep 2025 30 85 52.7 99.6 45.5 15.6 20.9 0.36 0 0 11 0 4 2
Oct 2025 31 72 42.6 85 34.5 12.7 20.5 1.08 0 0 0 0 6 2
Nov 2025 30 65.7 39.4 80 29.7 12.1 31.6 3.58 0 3 0 0 9 4
Dec 2025 31 61.4 36 72.4 27.6 13 43.3 7.73 2 15 0 0 11 9
Total 365 - - - - - - 27.21 23 66 58 1 60 36
Average 30.4 73.4 42.7 73.4 42.7 14.9 - 2.27 1.9 5.5 4.8 0.1 5 3
Maximum 31 92.4 53.9 100.2 - - 43.3 8.7 16 22 21 1 11 9
Minimum 28 58.3 29.7 - 22.5 - - 0 0 0 0 0 0 0
Calm: 0.0%
Calm: 0.1%